Time;durP1;ratioP1;P1;durP2;ratioP2;P2;SDS_P1;SDS_P2;PMS_P1;PMS_P2;Temp;Humidity;BMP_temperature;BMP_pressure;BME280_temperature;BME280_humidity;BME280_pressure;Samples;Min_cycle;Max_cycle;Signal;HPM_P1;HPM_P2
2021/09/12 00:02:49;;;;;;;5.60;4.67;;;15.60;81.20;;;;;;6275845;28;20973;-82
2021/09/12 00:05:52;;;;;;;4.90;4.30;;;15.50;81.00;;;;;;6275855;28;20473;-81
2021/09/12 00:08:54;;;;;;;4.88;4.47;;;15.50;80.90;;;;;;6275272;28;20837;-82
2021/09/12 00:11:55;;;;;;;5.53;4.53;;;15.50;80.90;;;;;;6275409;28;20456;-83
2021/09/12 00:14:58;;;;;;;4.93;4.53;;;15.50;81.00;;;;;;6273571;28;20491;-82
2021/09/12 00:18:00;;;;;;;8.73;4.63;;;15.50;81.30;;;;;;6274992;28;20612;-83
2021/09/12 00:21:03;;;;;;;4.57;4.17;;;15.40;80.80;;;;;;6274897;28;21046;-81
2021/09/12 00:24:05;;;;;;;4.90;4.50;;;15.40;80.90;;;;;;6275691;28;20847;-82
2021/09/12 00:27:07;;;;;;;5.43;4.90;;;15.40;80.90;;;;;;6275330;28;20508;-81
2021/09/12 00:30:10;;;;;;;5.57;4.65;;;15.30;81.20;;;;;;6275881;28;20485;-82
2021/09/12 00:33:12;;;;;;;5.55;5.05;;;15.30;81.10;;;;;;6275458;28;20420;-81
2021/09/12 00:36:15;;;;;;;8.38;5.50;;;15.20;81.20;;;;;;6275453;28;20829;-79
2021/09/12 00:39:17;;;;;;;4.95;4.40;;;15.30;81.30;;;;;;6275168;28;20498;-81
2021/09/12 00:42:19;;;;;;;6.72;5.78;;;15.20;81.40;;;;;;6274982;28;20429;-81
2021/09/12 00:45:21;;;;;;;5.35;4.50;;;15.10;81.10;;;;;;6274915;28;20417;-81
2021/09/12 00:48:24;;;;;;;5.32;4.82;;;15.10;81.20;;;;;;6275084;28;20519;-81
2021/09/12 00:51:27;;;;;;;5.60;5.07;;;15.10;81.30;;;;;;6274998;28;20532;-82
2021/09/12 00:54:30;;;;;;;5.68;4.82;;;15.10;81.90;;;;;;6274078;28;20502;-81
2021/09/12 00:57:35;;;;;;;6.95;4.95;;;15.00;81.20;;;;;;6275198;28;20543;-81
2021/09/12 01:00:37;;;;;;;5.07;4.68;;;15.00;81.20;;;;;;6274726;28;20521;-80
2021/09/12 01:03:39;;;;;;;5.80;4.30;;;15.00;81.20;;;;;;6275142;28;20910;-81
2021/09/12 01:06:43;;;;;;;4.78;4.38;;;14.90;81.20;;;;;;6274431;28;21114;-81
2021/09/12 01:09:45;;;;;;;5.03;4.57;;;14.90;81.00;;;;;;6265193;28;20532;-80
2021/09/12 01:12:47;;;;;;;5.38;4.85;;;14.90;81.30;;;;;;6260862;28;20436;-81
2021/09/12 01:15:49;;;;;;;5.25;4.50;;;14.80;81.10;;;;;;6276636;22;20455;-81
2021/09/12 01:18:51;;;;;;;4.85;4.45;;;14.80;81.40;;;;;;6248044;28;20439;-80
2021/09/12 01:21:57;;;;;;;6.38;5.35;;;14.80;81.10;;;;;;6248612;28;20419;-81
2021/09/12 01:25:00;;;;;;;4.32;3.90;;;14.70;81.00;;;;;;6248645;28;20512;-81
2021/09/12 01:28:04;;;;;;;8.10;5.07;;;14.70;81.10;;;;;;6250100;28;20431;-81
2021/09/12 01:31:05;;;;;;;6.75;4.28;;;14.70;81.30;;;;;;6271708;28;20428;-81
2021/09/12 01:34:07;;;;;;;5.93;4.45;;;14.70;80.80;;;;;;6279183;28;20448;-81
2021/09/12 01:37:09;;;;;;;5.80;4.70;;;14.60;81.10;;;;;;6277383;28;20794;-81
2021/09/12 01:40:13;;;;;;;5.30;4.72;;;14.60;81.10;;;;;;6279467;28;20520;-81
2021/09/12 01:43:19;;;;;;;6.15;5.15;;;14.60;81.10;;;;;;6278657;28;20417;-81
2021/09/12 01:46:22;;;;;;;4.70;4.30;;;14.60;81.10;;;;;;6277708;28;20473;-81
2021/09/12 01:49:24;;;;;;;4.90;4.45;;;14.60;81.00;;;;;;6278859;28;20520;-81
2021/09/12 01:52:26;;;;;;;6.35;5.47;;;14.50;80.40;;;;;;6279120;28;20429;-81
2021/09/12 01:55:29;;;;;;;9.00;5.35;;;14.50;80.70;;;;;;6278679;28;20425;-81
2021/09/12 01:58:32;;;;;;;5.40;4.90;;;14.40;81.00;;;;;;6278750;28;20508;-81
2021/09/12 02:01:34;;;;;;;6.00;4.85;;;14.40;81.40;;;;;;6278408;28;20417;-81
2021/09/12 02:04:36;;;;;;;6.35;5.18;;;14.40;81.40;;;;;;6277847;28;20594;-81
2021/09/12 02:07:38;;;;;;;5.05;4.55;;;14.30;81.40;;;;;;6278652;28;20433;-81
2021/09/12 02:10:42;;;;;;;6.50;5.50;;;14.30;81.10;;;;;;6277940;28;20475;-81
2021/09/12 02:13:44;;;;;;;5.57;4.85;;;14.30;81.20;;;;;;6278269;28;20421;-81
2021/09/12 02:16:46;;;;;;;7.60;4.78;;;14.30;81.00;;;;;;6278087;28;20977;-81
2021/09/12 02:19:48;;;;;;;5.78;5.22;;;14.30;81.30;;;;;;6278519;28;20918;-81
2021/09/12 02:22:50;;;;;;;5.35;4.72;;;14.20;81.00;;;;;;6278345;28;20416;-81
2021/09/12 02:25:53;;;;;;;6.57;5.18;;;14.20;81.00;;;;;;6278073;28;20499;-81
2021/09/12 02:28:55;;;;;;;8.30;5.65;;;14.20;81.20;;;;;;6278272;28;20430;-80
2021/09/12 02:31:57;;;;;;;5.90;4.88;;;14.20;81.40;;;;;;6277614;28;20886;-80
2021/09/12 02:34:59;;;;;;;5.03;4.40;;;14.20;81.50;;;;;;6277085;28;20433;-81
2021/09/12 02:38:00;;;;;;;4.72;4.32;;;14.20;81.50;;;;;;6278011;28;20448;-81
2021/09/12 02:41:04;;;;;;;4.47;4.07;;;14.20;81.10;;;;;;6278111;28;20425;-80
2021/09/12 02:44:06;;;;;;;6.05;5.50;;;14.20;81.20;;;;;;6278057;28;20514;-80
2021/09/12 02:47:08;;;;;;;8.32;5.22;;;14.20;81.10;;;;;;6276463;28;20495;-80
2021/09/12 02:50:10;;;;;;;4.63;4.15;;;14.20;80.30;;;;;;6277303;28;20492;-81
2021/09/12 02:53:12;;;;;;;5.03;4.47;;;14.10;80.40;;;;;;6277582;28;20437;-82
2021/09/12 02:56:15;;;;;;;5.18;4.68;;;14.10;81.40;;;;;;6277331;28;20421;-82
2021/09/12 02:59:17;;;;;;;7.25;4.75;;;14.10;80.80;;;;;;6276908;28;20476;-81
2021/09/12 03:02:19;;;;;;;6.30;5.70;;;14.00;80.60;;;;;;6277784;28;20493;-81
2021/09/12 03:05:21;;;;;;;6.00;4.70;;;14.00;81.50;;;;;;6277744;28;20421;-82
2021/09/12 03:08:23;;;;;;;10.57;4.72;;;14.00;81.50;;;;;;6278571;28;20575;-82
2021/09/12 03:11:26;;;;;;;5.85;5.07;;;13.90;81.30;;;;;;6277753;28;20440;-81
2021/09/12 03:14:28;;;;;;;5.53;4.85;;;13.90;81.70;;;;;;6276954;28;20905;-81
2021/09/12 03:17:30;;;;;;;5.35;4.85;;;13.90;81.60;;;;;;6278226;28;20492;-81
2021/09/12 03:20:32;;;;;;;5.90;5.13;;;13.90;81.70;;;;;;6277967;28;20638;-80
2021/09/12 03:23:33;;;;;;;5.25;4.75;;;13.80;81.20;;;;;;6278093;28;20479;-81
2021/09/12 03:26:37;;;;;;;6.00;4.55;;;13.80;81.10;;;;;;6277408;28;20515;-81
2021/09/12 03:29:38;;;;;;;8.73;5.17;;;13.80;81.50;;;;;;6277494;28;21047;-81
2021/09/12 03:32:40;;;;;;;8.43;5.85;;;13.80;81.30;;;;;;6279253;28;20463;-81
2021/09/12 03:35:42;;;;;;;5.38;4.25;;;13.80;81.10;;;;;;6279415;28;20877;-81
2021/09/12 03:38:44;;;;;;;6.90;4.68;;;13.70;81.10;;;;;;6278013;28;20460;-81
2021/09/12 03:41:48;;;;;;;4.88;4.47;;;13.70;81.40;;;;;;6278018;28;20418;-81
2021/09/12 03:44:50;;;;;;;5.10;4.32;;;13.60;80.90;;;;;;6278088;28;20410;-81
2021/09/12 03:47:52;;;;;;;4.57;4.17;;;13.70;80.90;;;;;;6278044;28;20538;-81
2021/09/12 03:50:54;;;;;;;4.50;4.10;;;13.60;81.90;;;;;;6277387;28;20414;-80
2021/09/12 03:53:55;;;;;;;5.53;4.43;;;13.60;81.20;;;;;;6277244;28;20417;-81
2021/09/12 03:56:59;;;;;;;5.82;4.60;;;13.60;81.20;;;;;;6277575;28;20489;-81
2021/09/12 04:00:00;;;;;;;4.40;4.00;;;13.60;81.10;;;;;;6278175;28;20437;-81
2021/09/12 04:03:02;;;;;;;4.82;4.07;;;13.50;80.90;;;;;;6278018;28;20441;-81
2021/09/12 04:06:04;;;;;;;5.45;4.05;;;13.50;81.00;;;;;;6278216;28;20417;-82
2021/09/12 04:09:08;;;;;;;5.65;4.35;;;13.50;80.90;;;;;;6277387;28;20472;-81
2021/09/12 04:12:11;;;;;;;5.45;4.70;;;13.50;81.00;;;;;;6277017;28;20519;-80
2021/09/12 04:15:13;;;;;;;4.87;4.37;;;13.50;81.00;;;;;;6249946;28;20535;-80
2021/09/12 04:18:15;;;;;;;5.93;4.68;;;13.50;80.90;;;;;;6251283;28;20438;-80
2021/09/12 04:21:16;;;;;;;6.80;4.93;;;13.50;80.90;;;;;;6252105;28;20445;-80
2021/09/12 04:24:18;;;;;;;5.72;5.13;;;13.50;81.20;;;;;;6251830;28;20851;-81
2021/09/12 04:27:21;;;;;;;7.47;4.75;;;13.40;81.10;;;;;;6249795;28;20415;-79
2021/09/12 04:30:23;;;;;;;4.70;4.13;;;13.40;81.30;;;;;;6248331;28;20443;-79
2021/09/12 04:33:26;;;;;;;5.53;4.30;;;13.40;81.20;;;;;;6248360;28;20593;-79
2021/09/12 04:36:28;;;;;;;4.82;4.20;;;13.40;80.80;;;;;;6248114;28;20462;-79
2021/09/12 04:39:30;;;;;;;5.13;4.72;;;13.40;80.60;;;;;;6248781;28;20430;-80
2021/09/12 04:42:33;;;;;;;5.53;4.95;;;13.40;80.50;;;;;;6246479;28;20493;-79
2021/09/12 04:45:35;;;;;;;6.37;4.80;;;13.30;80.60;;;;;;6246644;28;20473;-79
2021/09/12 04:48:37;;;;;;;5.60;4.88;;;13.30;81.00;;;;;;6246957;28;20796;-80
2021/09/12 04:51:39;;;;;;;5.93;4.35;;;13.30;81.10;;;;;;6253465;28;20577;-79
2021/09/12 04:54:41;;;;;;;5.35;4.85;;;13.40;80.80;;;;;;6245895;28;20411;-80
2021/09/12 04:57:45;;;;;;;4.88;4.22;;;13.30;80.70;;;;;;6245715;28;20421;-80
2021/09/12 05:00:47;;;;;;;5.28;4.85;;;12.80;80.10;;;;;;6244698;28;20415;-79
2021/09/12 05:03:51;;;;;;;4.73;4.33;;;13.20;80.50;;;;;;6246106;28;20462;-80
2021/09/12 05:06:52;;;;;;;5.32;4.82;;;13.20;80.70;;;;;;6247189;28;20812;-78
2021/09/12 05:09:54;;;;;;;5.13;4.30;;;13.20;81.00;;;;;;6249985;28;20489;-79
2021/09/12 05:12:57;;;;;;;5.03;4.60;;;13.30;81.80;;;;;;6250136;28;20442;-79
2021/09/12 05:15:59;;;;;;;5.55;4.30;;;13.20;80.90;;;;;;6250069;28;20529;-79
2021/09/12 05:19:01;;;;;;;5.72;5.13;;;13.20;81.00;;;;;;6250408;28;20454;-79
2021/09/12 05:22:03;;;;;;;5.07;4.57;;;13.30;80.90;;;;;;6250419;28;20438;-78
2021/09/12 05:25:06;;;;;;;5.65;3.88;;;13.20;80.50;;;;;;6250216;28;20489;-80
2021/09/12 05:28:09;;;;;;;6.25;4.43;;;13.30;80.70;;;;;;6250354;28;21051;-79
2021/09/12 05:31:11;;;;;;;8.85;4.75;;;13.70;80.90;;;;;;6249715;28;20536;-79
2021/09/12 05:34:13;;;;;;;4.63;3.90;;;13.40;80.60;;;;;;6249618;28;20498;-81
2021/09/12 05:37:15;;;;;;;4.13;3.78;;;13.50;80.50;;;;;;6249672;28;20498;-79
2021/09/12 05:40:17;;;;;;;5.95;4.18;;;13.50;80.30;;;;;;6250183;28;20509;-79
2021/09/12 05:43:20;;;;;;;4.10;3.80;;;13.60;79.60;;;;;;6249442;28;21052;-79
2021/09/12 05:46:22;;;;;;;4.72;4.07;;;13.70;79.30;;;;;;6249404;28;20419;-79
2021/09/12 05:49:23;;;;;;;6.68;3.72;;;13.80;79.60;;;;;;6249743;28;20876;-79
2021/09/12 05:52:25;;;;;;;4.30;3.90;;;13.90;79.30;;;;;;6249786;28;20458;-80
2021/09/12 05:55:27;;;;;;;6.15;4.03;;;14.00;79.10;;;;;;6249455;28;20549;-79
2021/09/12 05:58:30;;;;;;;4.88;4.28;;;14.20;79.10;;;;;;6266095;28;20487;-79
2021/09/12 06:01:32;;;;;;;4.05;3.65;;;14.40;78.60;;;;;;6274471;28;20417;-79
2021/09/12 06:04:34;;;;;;;4.75;3.45;;;14.50;78.30;;;;;;6274130;28;20510;-79
2021/09/12 06:07:36;;;;;;;3.53;3.25;;;14.70;78.00;;;;;;6274417;28;20567;-80
2021/09/12 06:10:38;;;;;;;4.10;3.70;;;14.90;77.60;;;;;;6274422;28;20463;-79
2021/09/12 06:13:41;;;;;;;3.50;3.20;;;15.00;77.30;;;;;;6273898;28;20554;-79
2021/09/12 06:16:43;;;;;;;4.65;3.67;;;15.30;76.80;;;;;;6272583;28;20567;-79
2021/09/12 06:19:45;;;;;;;3.55;3.25;;;15.50;78.30;;;;;;6273386;28;20429;-79
2021/09/12 06:22:50;;;;;;;4.13;3.73;;;15.60;76.40;;;;;;6273411;28;20829;-79
2021/09/12 06:25:52;;;;;;;3.70;3.40;;;15.80;76.30;;;;;;6273475;28;20421;-79
2021/09/12 06:28:56;;;;;;;4.85;3.38;;;15.90;76.10;;;;;;6272942;28;20940;-79
2021/09/12 06:31:58;;;;;;;3.95;3.65;;;16.20;76.00;;;;;;6274760;28;20448;-79
2021/09/12 06:35:00;;;;;;;4.07;2.93;;;16.30;75.00;;;;;;6273095;28;20499;-79
2021/09/12 06:38:02;;;;;;;46.03;41.58;;;16.60;75.10;;;;;;6272823;28;20918;-79
2021/09/12 06:41:04;;;;;;;6.45;4.53;;;16.80;75.00;;;;;;6273527;28;20487;-79
2021/09/12 06:44:07;;;;;;;5.50;4.15;;;17.00;75.80;;;;;;6275674;28;20567;-79
2021/09/12 06:47:09;;;;;;;4.50;4.10;;;17.20;75.50;;;;;;6280950;28;20437;-81
2021/09/12 06:50:11;;;;;;;6.32;5.10;;;17.30;75.60;;;;;;6277816;28;20418;-81
2021/09/12 06:53:13;;;;;;;7.00;4.80;;;17.50;75.50;;;;;;6276226;28;20421;-81
2021/09/12 06:56:15;;;;;;;5.97;4.82;;;17.70;75.30;;;;;;6276130;28;20433;-80
2021/09/12 06:59:18;;;;;;;9.30;7.03;;;18.00;74.60;;;;;;6275329;28;20514;-80
2021/09/12 07:02:20;;;;;;;5.37;4.70;;;18.30;74.20;;;;;;6275060;28;20509;-79
2021/09/12 07:05:22;;;;;;;4.97;4.50;;;18.60;73.30;;;;;;6271651;28;20440;-79
2021/09/12 07:08:24;;;;;;;5.10;4.70;;;18.90;72.30;;;;;;6274490;28;20499;-79
2021/09/12 07:11:26;;;;;;;6.45;4.75;;;19.20;71.60;;;;;;6257796;28;20467;-79
2021/09/12 07:14:29;;;;;;;5.38;3.97;;;19.50;71.10;;;;;;6271773;28;20429;-79
2021/09/12 07:17:31;;;;;;;4.07;3.67;;;19.70;70.00;;;;;;6279396;28;20555;-79
2021/09/12 07:20:32;;;;;;;4.40;3.80;;;19.90;69.10;;;;;;6281118;28;20575;-79
2021/09/12 07:23:34;;;;;;;8.00;3.80;;;20.20;68.40;;;;;;6281703;28;20453;-79
2021/09/12 07:26:36;;;;;;;5.15;3.38;;;20.40;67.60;;;;;;6281362;28;20421;-80
2021/09/12 07:29:39;;;;;;;5.75;3.53;;;20.60;66.80;;;;;;6275409;28;20449;-79
2021/09/12 07:32:42;;;;;;;3.75;3.30;;;20.90;65.60;;;;;;6271764;28;20464;-79
2021/09/12 07:35:44;;;;;;;3.50;3.20;;;21.10;64.50;;;;;;6272171;28;20869;-79
2021/09/12 07:38:45;;;;;;;3.35;2.95;;;21.40;64.80;;;;;;6271123;28;20966;-79
2021/09/12 07:41:47;;;;;;;3.27;2.97;;;21.70;64.00;;;;;;6271844;28;20492;-79
2021/09/12 07:44:50;;;;;;;4.13;3.22;;;21.90;63.20;;;;;;6269464;28;20449;-77
2021/09/12 07:47:52;;;;;;;3.22;2.80;;;22.10;62.40;;;;;;6269956;28;20439;-77
2021/09/12 07:50:54;;;;;;;3.10;2.20;;;22.30;61.40;;;;;;6269249;28;20543;-77
2021/09/12 07:53:56;;;;;;;3.78;2.20;;;22.50;60.60;;;;;;6269131;28;20456;-77
2021/09/12 07:56:58;;;;;;;2.60;2.40;;;22.70;60.20;;;;;;6268671;28;20492;-77
2021/09/12 08:00:01;;;;;;;5.70;3.30;;;22.90;59.00;;;;;;6269808;28;20433;-77
2021/09/12 08:03:03;;;;;;;4.30;2.50;;;23.10;58.70;;;;;;6269300;28;20445;-77
2021/09/12 08:06:05;;;;;;;3.40;2.40;;;23.20;58.30;;;;;;6268867;28;20970;-77
2021/09/12 08:09:07;;;;;;;2.37;2.10;;;23.30;57.60;;;;;;6269192;28;20489;-77
2021/09/12 08:12:08;;;;;;;4.00;2.65;;;23.40;57.30;;;;;;6269369;28;20538;-77
2021/09/12 08:15:12;;;;;;;3.75;2.35;;;23.60;57.50;;;;;;6268769;28;20868;-77
2021/09/12 08:18:14;;;;;;;2.25;2.08;;;23.70;57.60;;;;;;6267393;28;20427;-77
2021/09/12 08:21:16;;;;;;;2.35;1.88;;;24.00;58.10;;;;;;6269209;28;20524;-77
2021/09/12 08:24:17;;;;;;;17.17;15.48;;;24.20;55.90;;;;;;6269208;28;20429;-77
2021/09/12 08:27:19;;;;;;;2.15;1.90;;;24.40;55.90;;;;;;6268837;28;20567;-77
2021/09/12 08:30:22;;;;;;;1.80;1.70;;;24.60;54.10;;;;;;6269254;28;20417;-76
2021/09/12 08:33:24;;;;;;;3.08;2.03;;;24.80;52.90;;;;;;6268855;28;20491;-77
2021/09/12 08:36:26;;;;;;;8.25;7.45;;;24.80;53.00;;;;;;6274379;28;20518;-77
2021/09/12 08:39:28;;;;;;;2.15;1.95;;;24.90;54.00;;;;;;6272722;28;20460;-77
2021/09/12 08:42:30;;;;;;;4.72;2.05;;;25.10;53.00;;;;;;6274033;28;20852;-77
2021/09/12 08:45:34;;;;;;;6.03;1.75;;;25.30;53.60;;;;;;6275015;28;20417;-77
2021/09/12 08:48:36;;;;;;;2.30;2.05;;;25.50;53.10;;;;;;6275085;28;20938;-77
2021/09/12 08:51:38;;;;;;;2.87;1.93;;;25.80;52.60;;;;;;6275222;28;20802;-78
2021/09/12 08:54:40;;;;;;;3.87;2.20;;;26.00;51.50;;;;;;6274930;28;20425;-78
2021/09/12 08:57:48;;;;;;;2.47;1.90;;;26.20;50.40;;;;;;6275777;28;20504;-77
2021/09/12 09:00:52;;;;;;;2.90;2.07;;;26.30;50.00;;;;;;6273381;28;21296;-77
2021/09/12 09:04:01;;;;;;;3.67;3.33;;;26.40;49.60;;;;;;6273373;28;20499;-77
2021/09/12 09:07:05;;;;;;;4.15;3.38;;;26.40;48.60;;;;;;6272645;28;20941;-77
2021/09/12 09:10:18;;;;;;;2.03;1.80;;;26.50;49.00;;;;;;6273102;28;20439;-77
2021/09/12 09:13:30;;;;;;;3.93;1.60;;;26.60;48.60;;;;;;6273296;28;20421;-77
2021/09/12 09:16:33;;;;;;;4.13;1.98;;;26.60;48.40;;;;;;6272500;28;20432;-77
2021/09/12 09:19:50;;;;;;;3.30;2.05;;;26.60;49.10;;;;;;6272175;28;20428;-78
2021/09/12 09:22:53;;;;;;;4.53;1.80;;;26.70;48.40;;;;;;6272866;28;20413;-77
2021/09/12 09:25:55;;;;;;;4.00;1.70;;;26.90;47.90;;;;;;6272393;28;20409;-77
2021/09/12 09:28:57;;;;;;;4.80;1.92;;;27.00;47.50;;;;;;6272980;28;20890;-77
2021/09/12 09:32:04;;;;;;;2.10;1.65;;;27.00;47.70;;;;;;6273269;28;20472;-77
2021/09/12 09:35:07;;;;;;;2.78;1.58;;;26.90;47.20;;;;;;6271244;28;20950;-77
2021/09/12 09:38:09;;;;;;;1.80;1.50;;;27.00;47.00;;;;;;6272561;28;20512;-77
2021/09/12 09:41:13;;;;;;;5.28;1.70;;;27.20;46.50;;;;;;6271879;28;20464;-77
2021/09/12 09:44:22;;;;;;;3.53;1.25;;;27.20;45.60;;;;;;6272304;28;20434;-77
2021/09/12 09:47:28;;;;;;;3.17;2.13;;;27.30;45.50;;;;;;6271872;28;20417;-77
2021/09/12 09:50:31;;;;;;;2.50;1.63;;;27.30;46.00;;;;;;6272449;28;20409;-77
2021/09/12 09:53:36;;;;;;;1.90;1.70;;;27.40;45.40;;;;;;6271099;28;20417;-77
2021/09/12 09:56:38;;;;;;;2.28;1.45;;;27.50;44.60;;;;;;6272031;28;20440;-77
2021/09/12 09:59:40;;;;;;;3.13;2.55;;;27.70;44.00;;;;;;6272350;28;20469;-76
2021/09/12 10:02:43;;;;;;;2.38;1.80;;;27.80;42.80;;;;;;6271336;28;20417;-76
2021/09/12 10:05:46;;;;;;;2.22;1.70;;;28.10;42.40;;;;;;6265643;28;20499;-77
2021/09/12 10:08:48;;;;;;;2.58;1.73;;;28.30;41.60;;;;;;6272373;28;20496;-77
2021/09/12 10:11:53;;;;;;;2.60;1.60;;;28.50;40.80;;;;;;6271989;28;20512;-77
2021/09/12 10:14:59;;;;;;;4.00;1.58;;;28.70;40.20;;;;;;6270419;28;20412;-77
2021/09/12 10:18:04;;;;;;;1.83;1.30;;;28.90;39.70;;;;;;6260622;28;20417;-77
2021/09/12 10:21:23;;;;;;;6.88;5.60;;;29.00;39.90;;;;;;6270001;28;20421;-77
2021/09/12 10:24:25;;;;;;;8.80;7.88;;;29.10;39.40;;;;;;6267270;28;20803;-77
2021/09/12 10:27:34;;;;;;;2.50;1.30;;;29.30;39.80;;;;;;6246822;28;20437;-77
2021/09/12 10:30:38;;;;;;;3.30;1.77;;;29.40;39.40;;;;;;6247145;28;20431;-77
2021/09/12 10:33:41;;;;;;;2.47;1.87;;;29.00;40.30;;;;;;6256342;28;21050;-77
2021/09/12 10:36:45;;;;;;;3.05;2.15;;;29.10;40.00;;;;;;6250431;28;20492;-77
2021/09/12 10:39:53;;;;;;;2.58;1.40;;;29.30;39.30;;;;;;6246808;28;20439;-78
2021/09/12 10:42:54;;;;;;;3.10;1.50;;;29.60;38.90;;;;;;6246118;28;20509;-77
2021/09/12 10:46:24;;;;;;;2.60;2.07;;;29.60;38.20;;;;;;6245825;28;20426;-77
2021/09/12 10:49:31;;;;;;;2.85;1.85;;;29.70;38.70;;;;;;6245857;28;20425;-77
2021/09/12 10:52:49;;;;;;;2.90;1.50;;;29.90;37.90;;;;;;6245954;28;20492;-77
2021/09/12 10:56:01;;;;;;;2.33;1.58;;;30.20;36.70;;;;;;6246107;28;20439;-77
2021/09/12 10:59:07;;;;;;;3.10;1.10;;;30.30;37.20;;;;;;6246033;28;20419;-77
2021/09/12 11:02:15;;;;;;;2.00;1.40;;;30.40;36.70;;;;;;6246611;28;20463;-77
2021/09/12 11:05:26;;;;;;;4.63;1.63;;;30.70;37.10;;;;;;6261217;28;21213;-77
2021/09/12 11:08:36;;;;;;;1.30;1.10;;;31.00;35.20;;;;;;6270189;28;20571;-77
2021/09/12 11:11:37;;;;;;;1.25;1.13;;;31.00;36.00;;;;;;6270833;28;20512;-77
2021/09/12 11:14:39;;;;;;;2.10;0.90;;;31.00;37.50;;;;;;6269817;28;20436;-77
2021/09/12 11:17:52;;;;;;;1.20;1.05;;;30.90;36.20;;;;;;6269961;28;20410;-77
2021/09/12 11:20:56;;;;;;;2.53;1.20;;;31.00;35.90;;;;;;6269185;28;20425;-77
2021/09/12 11:24:00;;;;;;;3.70;1.20;;;30.90;35.90;;;;;;6270422;28;21191;-78
2021/09/12 11:27:03;;;;;;;3.72;1.52;;;31.00;36.30;;;;;;6269748;28;20787;-77
2021/09/12 11:30:08;;;;;;;1.80;1.10;;;31.20;35.60;;;;;;6269675;28;20508;-77
2021/09/12 11:33:10;;;;;;;1.42;1.10;;;31.10;35.70;;;;;;6260189;28;21042;-77
2021/09/12 11:36:13;;;;;;;1.75;1.23;;;31.30;35.80;;;;;;6269468;28;20464;-78
2021/09/12 11:39:19;;;;;;;1.52;1.15;;;31.40;34.90;;;;;;6269605;28;20421;-77
2021/09/12 11:42:21;;;;;;;1.85;1.50;;;31.50;34.70;;;;;;6269553;28;20425;-77
2021/09/12 11:45:22;;;;;;;1.25;1.00;;;31.60;34.80;;;;;;6269289;28;20449;-77
2021/09/12 11:48:24;;;;;;;2.65;1.20;;;31.80;34.30;;;;;;6269815;28;20523;-76
2021/09/12 11:51:30;;;;;;;1.40;1.23;;;31.80;34.00;;;;;;6269722;28;20506;-77
2021/09/12 11:54:35;;;;;;;2.57;0.87;;;31.60;34.20;;;;;;6268711;28;20508;-77
2021/09/12 11:57:37;;;;;;;1.58;0.88;;;31.50;34.10;;;;;;6269133;28;20524;-77
2021/09/12 12:00:39;;;;;;;1.30;0.98;;;31.60;35.00;;;;;;6269305;28;20498;-77
2021/09/12 12:03:41;;;;;;;1.65;0.90;;;31.40;33.90;;;;;;6269328;28;20440;-77
2021/09/12 12:06:48;;;;;;;1.93;1.20;;;31.00;34.60;;;;;;6248147;28;20506;-77
2021/09/12 12:09:50;;;;;;;1.88;1.20;;;30.80;34.90;;;;;;6244103;28;20971;-77
2021/09/12 12:12:52;;;;;;;1.70;1.27;;;30.80;34.20;;;;;;6244054;28;20931;-77
2021/09/12 12:16:00;;;;;;;1.85;1.20;;;30.80;34.10;;;;;;6243857;28;20463;-77
2021/09/12 12:19:02;;;;;;;1.42;0.95;;;30.90;34.80;;;;;;6244709;28;20414;-77
2021/09/12 12:22:08;;;;;;;1.83;1.20;;;30.90;34.30;;;;;;6264437;28;20972;-77
2021/09/12 12:25:11;;;;;;;6.43;2.10;;;31.10;33.90;;;;;;6268695;28;20831;-77
2021/09/12 12:28:16;;;;;;;1.25;1.00;;;31.30;33.90;;;;;;6268860;28;21442;-77
2021/09/12 12:31:18;;;;;;;1.10;0.98;;;31.30;34.40;;;;;;6268276;28;20408;-77
2021/09/12 12:34:40;;;;;;;2.40;1.45;;;31.30;33.50;;;;;;6266118;28;20449;-77
2021/09/12 12:37:44;;;;;;;2.85;0.90;;;31.20;33.80;;;;;;6244074;28;20416;-77
2021/09/12 12:40:46;;;;;;;1.95;1.17;;;31.30;33.70;;;;;;6243858;28;20420;-77
2021/09/12 12:43:48;;;;;;;0.93;0.90;;;31.20;34.40;;;;;;6244598;28;20438;-77
2021/09/12 12:46:51;;;;;;;1.90;1.10;;;31.00;34.00;;;;;;6243945;28;20410;-77
2021/09/12 12:49:57;;;;;;;3.00;1.17;;;31.10;34.30;;;;;;6243781;28;20415;-77
2021/09/12 12:53:13;;;;;;;1.67;1.27;;;31.20;34.40;;;;;;6243451;28;20411;-77
2021/09/12 12:56:17;;;;;;;2.20;1.30;;;31.30;34.20;;;;;;6243920;28;20440;-77
2021/09/12 12:59:19;;;;;;;1.92;1.38;;;31.40;34.80;;;;;;6243807;28;20419;-77
2021/09/12 13:02:21;;;;;;;2.30;1.45;;;31.70;33.60;;;;;;6246390;28;20407;-77
2021/09/12 13:05:23;;;;;;;2.58;1.15;;;31.80;33.20;;;;;;6258461;28;20418;-77
2021/09/12 13:08:27;;;;;;;1.85;1.27;;;31.90;33.50;;;;;;6244048;28;20517;-77
2021/09/12 13:11:30;;;;;;;2.47;1.30;;;32.00;33.20;;;;;;6243691;28;20897;-77
2021/09/12 13:14:32;;;;;;;4.63;1.67;;;31.80;32.80;;;;;;6243709;28;20453;-77
2021/09/12 13:17:33;;;;;;;2.50;1.40;;;31.20;33.10;;;;;;6243932;28;20419;-77
2021/09/12 13:20:36;;;;;;;1.33;1.17;;;30.70;34.20;;;;;;6243316;28;20427;-76
2021/09/12 13:23:39;;;;;;;7.20;5.80;;;30.90;35.00;;;;;;6267108;28;20463;-77
2021/09/12 13:26:41;;;;;;;1.45;1.17;;;31.30;34.50;;;;;;6267698;28;20457;-76
2021/09/12 13:29:43;;;;;;;3.53;1.52;;;31.40;34.40;;;;;;6272161;28;20418;-77
2021/09/12 13:32:44;;;;;;;1.67;1.35;;;31.60;34.00;;;;;;6271775;28;20909;-77
2021/09/12 13:35:47;;;;;;;1.90;1.50;;;31.80;34.10;;;;;;6259933;28;20466;-77
2021/09/12 13:38:50;;;;;;;1.13;1.02;;;31.90;33.70;;;;;;6249344;28;20411;-77
2021/09/12 13:41:52;;;;;;;2.15;1.10;;;32.20;33.40;;;;;;6250021;28;20420;-78
2021/09/12 13:44:55;;;;;;;1.63;1.50;;;32.30;33.10;;;;;;6250425;28;20430;-77
2021/09/12 13:47:57;;;;;;;3.53;1.30;;;32.30;33.00;;;;;;6250415;28;20843;-77
2021/09/12 13:50:59;;;;;;;2.07;1.03;;;32.30;32.90;;;;;;6248976;28;20419;-77
2021/09/12 13:54:02;;;;;;;1.80;1.10;;;32.40;32.70;;;;;;6249183;28;20449;-78
2021/09/12 13:57:04;;;;;;;1.25;1.10;;;32.50;32.30;;;;;;6249123;28;20423;-78
2021/09/12 14:00:08;;;;;;;2.10;1.17;;;32.30;32.20;;;;;;6249340;28;20438;-78
2021/09/12 14:03:10;;;;;;;1.30;0.93;;;31.90;32.80;;;;;;6258604;28;20497;-78
2021/09/12 14:06:12;;;;;;;2.88;1.33;;;31.60;33.30;;;;;;6258462;28;21001;-77
2021/09/12 14:09:15;;;;;;;1.10;1.00;;;31.30;34.30;;;;;;6249269;28;20498;-78
2021/09/12 14:12:17;;;;;;;1.25;1.00;;;31.30;34.80;;;;;;6249790;28;20518;-77
2021/09/12 14:15:19;;;;;;;1.90;1.40;;;31.30;33.90;;;;;;6249170;28;20502;-77
2021/09/12 14:18:21;;;;;;;2.95;1.20;;;31.70;34.40;;;;;;6248230;28;20470;-77
2021/09/12 14:21:23;;;;;;;2.92;1.60;;;32.10;33.60;;;;;;6248550;28;20465;-77
2021/09/12 14:24:26;;;;;;;1.60;0.95;;;32.20;33.50;;;;;;6270650;28;20443;-77
2021/09/12 14:27:28;;;;;;;2.00;1.10;;;32.00;32.50;;;;;;6273052;28;20888;-77
2021/09/12 14:30:29;;;;;;;1.20;0.90;;;31.70;33.10;;;;;;6271547;28;20516;-77
2021/09/12 14:33:31;;;;;;;2.58;1.52;;;31.80;33.60;;;;;;6272504;28;20413;-77
2021/09/12 14:36:33;;;;;;;1.65;1.20;;;31.90;33.80;;;;;;6253245;28;20525;-77
2021/09/12 14:39:37;;;;;;;1.23;0.90;;;32.10;32.70;;;;;;6247494;28;20569;-77
2021/09/12 14:42:39;;;;;;;1.25;1.00;;;32.40;32.10;;;;;;6247126;28;20415;-77
2021/09/12 14:45:40;;;;;;;1.60;1.23;;;32.50;32.50;;;;;;6247949;28;20812;-77
2021/09/12 14:48:42;;;;;;;3.88;2.00;;;32.60;32.90;;;;;;6249619;28;20528;-77
2021/09/12 14:51:44;;;;;;;1.63;1.10;;;32.70;32.30;;;;;;6249605;28;20895;-78
2021/09/12 14:54:47;;;;;;;2.33;1.15;;;32.70;32.60;;;;;;6247828;28;20502;-77
2021/09/12 14:57:49;;;;;;;2.35;1.25;;;32.70;31.80;;;;;;6247243;28;20506;-77
2021/09/12 15:00:51;;;;;;;2.70;1.30;;;32.50;32.10;;;;;;6247897;28;20546;-77
2021/09/12 15:03:53;;;;;;;1.80;1.42;;;32.10;33.40;;;;;;6263653;28;20563;-77
2021/09/12 15:06:55;;;;;;;3.00;1.27;;;31.90;33.20;;;;;;6248465;28;20968;-79
2021/09/12 15:09:58;;;;;;;1.30;1.20;;;31.60;33.20;;;;;;6248260;28;20415;-78
2021/09/12 15:13:01;;;;;;;1.50;1.30;;;31.40;34.90;;;;;;6246973;28;20418;-77
2021/09/12 15:16:03;;;;;;;2.15;1.40;;;31.10;35.50;;;;;;6247404;28;20438;-78
2021/09/12 15:19:05;;;;;;;1.45;1.35;;;30.70;36.00;;;;;;6247929;28;20427;-77
2021/09/12 15:22:07;;;;;;;2.13;1.50;;;30.50;36.80;;;;;;6247684;28;20493;-77
2021/09/12 15:25:11;;;;;;;1.83;1.60;;;30.20;37.00;;;;;;6259124;28;20418;-77
2021/09/12 15:28:13;;;;;;;3.38;1.60;;;29.90;37.70;;;;;;6272527;28;20909;-77
2021/09/12 15:31:15;;;;;;;1.40;1.20;;;29.70;37.30;;;;;;6271699;28;20513;-77
2021/09/12 15:34:20;;;;;;;3.03;1.30;;;29.40;38.60;;;;;;6263736;28;20462;-77
2021/09/12 15:37:22;;;;;;;2.90;1.60;;;29.10;38.90;;;;;;6272533;28;20420;-77
2021/09/12 15:40:25;;;;;;;1.40;1.25;;;28.90;39.10;;;;;;6272508;28;20437;-77
2021/09/12 15:43:27;;;;;;;1.58;1.23;;;28.80;39.70;;;;;;6272262;28;20438;-78
2021/09/12 15:46:28;;;;;;;1.97;1.53;;;28.60;40.20;;;;;;6271716;28;21205;-77
2021/09/12 15:49:30;;;;;;;2.00;1.40;;;28.40;40.00;;;;;;6271497;28;20491;-77
2021/09/12 15:52:33;;;;;;;1.92;1.45;;;28.20;40.00;;;;;;6271169;28;20563;-78